Time;durP1;ratioP1;P1;durP2;ratioP2;P2;SDS_P1;SDS_P2;PMS_P1;PMS_P2;Temp;Humidity;BMP_temperature;BMP_pressure;BME280_temperature;BME280_humidity;BME280_pressure;Samples;Min_cycle;Max_cycle;Signal;HPM_P1;HPM_P2
2022/11/21 00:01:22;;;;;;;5.32;4.18;;;;;;;;;;5061358;28;20299;-58
2022/11/21 00:03:48;;;;;;;6.55;4.70;;;;;;;;;;5061745;28;20048;-59
2022/11/21 00:06:14;;;;;;;4.28;3.78;;;;;;;;;;5062094;28;20036;-58
2022/11/21 00:08:40;;;;;;;5.93;4.80;;;;;;;;;;5060939;28;20028;-58
2022/11/21 00:11:07;;;;;;;6.47;4.78;;;;;;;;;;5062523;28;20044;-58
2022/11/21 00:13:33;;;;;;;5.68;4.88;;;;;;;;;;5061596;28;20570;-58
2022/11/21 00:16:05;;;;;;;6.65;4.88;;;;;;;;;;5061300;28;20407;-58
2022/11/21 00:18:33;;;;;;;7.57;5.38;;;;;;;;;;5062245;28;20036;-58
2022/11/21 00:21:03;;;;;;;7.40;5.45;;;;;;;;;;5062329;28;20053;-58
2022/11/21 00:23:29;;;;;;;6.70;4.97;;;;;;;;;;5059968;28;20453;-58
2022/11/21 00:25:54;;;;;;;6.20;5.47;;;;;;;;;;5061710;28;20068;-58
2022/11/21 00:28:20;;;;;;;5.75;5.15;;;;;;;;;;5061736;28;20075;-58
2022/11/21 00:30:46;;;;;;;6.30;4.80;;;;;;;;;;5061262;28;20415;-58
2022/11/21 00:33:12;;;;;;;5.72;4.93;;;;;;;;;;5062049;28;20068;-58
2022/11/21 00:35:38;;;;;;;6.25;4.50;;;;;;;;;;5061531;28;20499;-58
2022/11/21 00:38:04;;;;;;;5.03;4.05;;;;;;;;;;5060900;28;20044;-58
2022/11/21 00:40:30;;;;;;;4.43;3.88;;;;;;;;;;5061449;28;20120;-59
2022/11/21 00:42:56;;;;;;;5.70;4.80;;;;;;;;;;5061691;28;20052;-58
2022/11/21 00:45:22;;;;;;;5.22;4.25;;;;;;;;;;5060699;28;20446;-58
2022/11/21 00:47:48;;;;;;;4.80;4.25;;;;;;;;;;5063522;28;20040;-57
2022/11/21 00:50:14;;;;;;;6.95;4.93;;;;;;;;;;5065647;28;20467;-58
2022/11/21 00:52:40;;;;;;;5.38;4.45;;;;;;;;;;5064353;28;20036;-58
2022/11/21 00:55:06;;;;;;;6.03;4.80;;;;;;;;;;5064919;28;20047;-58
2022/11/21 00:57:32;;;;;;;5.90;4.70;;;;;;;;;;5064368;28;20093;-58
2022/11/21 00:59:58;;;;;;;;;;;;;;;;;;5065741;28;19928;-58
2022/11/21 01:02:24;;;;;;;;;;;;;;;;;;5065278;28;20339;-58
2022/11/21 01:04:50;;;;;;;;;;;;;;;;;;5064895;28;19925;-58
2022/11/21 01:07:16;;;;;;;;;;;;;;;;;;5065806;28;19931;-58
2022/11/21 01:09:42;;;;;;;;;;;;;;;;;;5064802;28;19967;-58
2022/11/21 01:12:08;;;;;;;;;;;;;;;;;;5064082;28;19971;-58
2022/11/21 01:14:34;;;;;;;;;;;;;;;;;;5064856;28;19932;-58
2022/11/21 01:17:00;;;;;;;;;;;;;;;;;;5064909;28;19931;-58
2022/11/21 01:19:26;;;;;;;;;;;;;;;;;;5064145;28;20358;-58
2022/11/21 01:21:52;;;;;;;;;;;;;;;;;;5065268;28;19929;-57
2022/11/21 01:24:18;;;;;;;;;;;;;;;;;;5065521;28;19990;-58
2022/11/21 01:26:44;;;;;;;7.00;5.00;;;;;;;;;;5063212;28;19925;-58
2022/11/21 01:29:10;;;;;;;5.82;4.65;;;;;;;;;;5064642;28;20123;-58
2022/11/21 01:31:36;;;;;;;6.95;5.43;;;;;;;;;;5064516;28;20386;-58
2022/11/21 01:34:02;;;;;;;6.43;4.80;;;;;;;;;;5063663;28;20590;-57
2022/11/21 01:36:32;;;;;;;6.70;5.13;;;;;;;;;;5064365;28;20044;-58
2022/11/21 01:38:59;;;;;;;6.82;5.10;;;;;;;;;;5064368;28;20052;-58
2022/11/21 01:41:33;;;;;;;4.15;3.75;;;;;;;;;;5062965;28;20423;-57
2022/11/21 01:43:59;;;;;;;5.68;4.20;;;;;;;;;;5063892;28;20161;-58
2022/11/21 01:46:25;;;;;;;6.28;5.13;;;;;;;;;;5064437;28;20094;-57
2022/11/21 01:49:05;;;;;;;7.55;5.30;;;;;;;;;;5063649;28;20036;-58
2022/11/21 01:51:43;;;;;;;5.32;4.30;;;;;;;;;;5064378;28;20119;-58
2022/11/21 01:54:29;;;;;;;5.13;4.60;;;;;;;;;;5063701;28;20117;-58
2022/11/21 01:57:01;;;;;;;6.30;4.65;;;;;;;;;;5064052;28;20139;-58
2022/11/21 01:59:29;;;;;;;4.82;4.05;;;;;;;;;;5061915;28;20042;-58
2022/11/21 02:01:56;;;;;;;4.78;3.78;;;;;;;;;;5063222;28;20522;-58
2022/11/21 02:04:24;;;;;;;6.00;3.95;;;;;;;;;;5064292;28;20036;-58
2022/11/21 02:06:50;;;;;;;5.32;4.13;;;;;;;;;;5063725;28;20094;-58
2022/11/21 02:09:17;;;;;;;6.50;4.90;;;;;;;;;;5063731;28;20063;-58
2022/11/21 02:11:54;;;;;;;5.68;4.20;;;;;;;;;;5063651;28;20118;-58
2022/11/21 02:14:20;;;;;;;5.93;4.88;;;;;;;;;;5064420;28;20047;-58
2022/11/21 02:16:46;;;;;;;5.63;4.35;;;;;;;;;;5062652;28;20036;-58
2022/11/21 02:19:19;;;;;;;5.22;4.32;;;;;;;;;;5063948;28;20481;-58
2022/11/21 02:21:52;;;;;;;5.60;4.25;;;;;;;;;;5061624;28;20411;-59
2022/11/21 02:24:29;;;;;;;5.38;4.22;;;;;;;;;;5064443;28;20074;-58
2022/11/21 02:26:56;;;;;;;6.72;4.82;;;;;;;;;;5063564;28;20040;-58
2022/11/21 02:29:22;;;;;;;5.68;4.47;;;;;;;;;;5063255;28;20041;-58
2022/11/21 02:31:48;;;;;;;6.35;4.70;;;;;;;;;;5063585;28;20059;-57
2022/11/21 02:34:14;;;;;;;6.38;4.22;;;;;;;;;;5064038;28;20036;-57
2022/11/21 02:36:47;;;;;;;5.15;4.10;;;;;;;;;;5062685;28;20350;-57
2022/11/21 02:39:15;;;;;;;4.90;3.95;;;;;;;;;;5063407;28;20127;-57
2022/11/21 02:41:45;;;;;;;6.20;4.60;;;;;;;;;;5063419;28;20052;-57
2022/11/21 02:44:23;;;;;;;8.07;5.22;;;;;;;;;;5062991;28;20052;-57
2022/11/21 02:46:50;;;;;;;6.93;4.60;;;;;;;;;;5063730;28;20124;-57
2022/11/21 02:49:21;;;;;;;7.95;5.63;;;;;;;;;;5063907;28;20036;-57
2022/11/21 02:51:47;;;;;;;8.45;5.53;;;;;;;;;;5062238;28;20040;-56
2022/11/21 02:54:13;;;;;;;7.20;5.32;;;;;;;;;;5063513;28;20119;-57
2022/11/21 02:56:39;;;;;;;6.20;4.97;;;;;;;;;;5062979;28;20051;-57
2022/11/21 02:59:05;;;;;;;6.55;5.40;;;;;;;;;;5062493;28;20037;-56
2022/11/21 03:01:31;;;;;;;7.53;5.40;;;;;;;;;;5063448;28;20495;-57
2022/11/21 03:03:57;;;;;;;8.25;5.90;;;;;;;;;;5063111;28;20102;-57
2022/11/21 03:06:23;;;;;;;7.80;5.15;;;;;;;;;;5063073;28;20398;-57
2022/11/21 03:08:49;;;;;;;6.78;5.32;;;;;;;;;;5062609;28;20111;-57
2022/11/21 03:11:15;;;;;;;6.97;5.22;;;;;;;;;;5062325;28;20053;-57
2022/11/21 03:13:41;;;;;;;7.18;5.28;;;;;;;;;;5062819;28;20398;-57
2022/11/21 03:16:07;;;;;;;5.85;4.63;;;;;;;;;;5062652;28;20574;-57
2022/11/21 03:18:33;;;;;;;6.78;4.80;;;;;;;;;;5061622;28;20109;-57
2022/11/21 03:20:59;;;;;;;8.52;5.38;;;;;;;;;;5063274;28;20059;-57
2022/11/21 03:23:25;;;;;;;5.63;3.92;;;;;;;;;;5062900;28;20040;-57
2022/11/21 03:25:51;;;;;;;5.85;4.22;;;;;;;;;;5061357;28;20040;-57
2022/11/21 03:28:17;;;;;;;7.90;5.70;;;;;;;;;;5062902;28;20222;-57
2022/11/21 03:30:43;;;;;;;8.32;5.90;;;;;;;;;;5062369;28;20514;-57
2022/11/21 03:33:09;;;;;;;6.75;5.05;;;;;;;;;;5061908;28;20048;-56
2022/11/21 03:35:35;;;;;;;6.32;5.07;;;;;;;;;;5062141;28;20503;-57
2022/11/21 03:38:01;;;;;;;8.30;4.93;;;;;;;;;;5062616;28;20136;-57
2022/11/21 03:40:27;;;;;;;5.28;4.30;;;;;;;;;;5061624;28;20105;-57
2022/11/21 03:42:53;;;;;;;7.45;5.47;;;;;;;;;;5062068;28;20040;-57
2022/11/21 03:45:19;;;;;;;5.90;4.80;;;;;;;;;;5063093;28;20701;-57
2022/11/21 03:47:45;;;;;;;7.28;4.95;;;;;;;;;;5061147;28;20075;-57
2022/11/21 03:50:13;;;;;;;9.10;6.28;;;;;;;;;;5062490;28;20474;-57
2022/11/21 03:52:39;;;;;;;8.55;6.40;;;;;;;;;;5061987;28;20124;-57
2022/11/21 03:55:06;;;;;;;9.52;6.35;;;;;;;;;;5061466;28;20131;-57
2022/11/21 03:57:32;;;;;;;9.80;6.72;;;;;;;;;;5062388;28;20412;-57
2022/11/21 03:59:57;;;;;;;7.80;6.32;;;;;;;;;;5062643;28;20070;-57
2022/11/21 04:02:23;;;;;;;8.93;6.25;;;;;;;;;;5061767;28;20045;-58
2022/11/21 04:04:49;;;;;;;9.73;6.75;;;;;;;;;;5061872;28;20123;-58
2022/11/21 04:07:15;;;;;;;8.32;6.30;;;;;;;;;;5062574;28;20118;-57
2022/11/21 04:09:41;;;;;;;9.52;6.65;;;;;;;;;;5061537;28;20052;-57
2022/11/21 04:12:07;;;;;;;8.77;6.20;;;;;;;;;;5062452;28;20365;-57
2022/11/21 04:14:33;;;;;;;8.40;5.90;;;;;;;;;;5061775;28;20051;-57
2022/11/21 04:16:59;;;;;;;9.15;6.32;;;;;;;;;;5060924;28;20044;-57
2022/11/21 04:19:25;;;;;;;8.60;5.93;;;;;;;;;;5062715;28;20475;-57
2022/11/21 04:21:51;;;;;;;6.53;5.15;;;;;;;;;;5060865;28;20049;-57
2022/11/21 04:24:17;;;;;;;6.30;5.18;;;;;;;;;;5066597;28;20044;-58
2022/11/21 04:26:43;;;;;;;7.60;5.88;;;;;;;;;;5066143;28;20056;-58
2022/11/21 04:29:09;;;;;;;9.10;6.27;;;;;;;;;;5065543;28;20032;-57
2022/11/21 04:31:35;;;;;;;7.43;5.10;;;;;;;;;;5065942;28;20084;-59
2022/11/21 04:34:01;;;;;;;7.03;4.95;;;;;;;;;;5066375;28;20489;-58
2022/11/21 04:36:27;;;;;;;7.60;4.85;;;;;;;;;;5065173;28;20173;-57
2022/11/21 04:38:53;;;;;;;9.30;5.30;;;;;;;;;;5065311;28;20157;-58
2022/11/21 04:41:19;;;;;;;8.07;5.78;;;;;;;;;;5069643;28;20041;-57
2022/11/21 04:43:45;;;;;;;8.65;5.55;;;;;;;;;;5064807;28;20440;-58
2022/11/21 04:46:11;;;;;;;7.07;4.95;;;;;;;;;;5066138;28;20365;-57
2022/11/21 04:48:37;;;;;;;8.82;5.80;;;;;;;;;;5065628;28;20040;-58
2022/11/21 04:51:03;;;;;;;9.35;6.72;;;;;;;;;;5065026;28;20044;-58
2022/11/21 04:53:29;;;;;;;10.48;6.22;;;;;;;;;;5066308;28;20353;-58
2022/11/21 04:55:55;;;;;;;8.57;6.18;;;;;;;;;;5064962;28;20434;-58
2022/11/21 04:58:21;;;;;;;8.48;6.13;;;;;;;;;;5065670;28;20074;-57
2022/11/21 05:00:47;;;;;;;11.82;7.88;;;;;;;;;;5065713;28;20105;-58
2022/11/21 05:03:13;;;;;;;11.88;8.25;;;;;;;;;;5065433;28;20738;-58
2022/11/21 05:05:39;;;;;;;11.02;7.75;;;;;;;;;;5065712;28;20045;-57
2022/11/21 05:08:05;;;;;;;10.82;7.18;;;;;;;;;;5065566;28;20127;-58
2022/11/21 05:13:19;;;;;;;9.35;6.68;;;;;;;;;;5065094;28;20166;-57
2022/11/21 05:13:20;;;;;;;9.95;6.55;;;;;;;;;;5066470;28;20040;-58
2022/11/21 05:15:50;;;;;;;8.77;5.97;;;;;;;;;;5064960;28;20048;-57
2022/11/21 05:18:16;;;;;;;9.35;6.50;;;;;;;;;;5064855;28;20044;-58
2022/11/21 05:20:42;;;;;;;9.23;6.57;;;;;;;;;;5063914;28;20197;-58
2022/11/21 05:23:08;;;;;;;10.10;6.40;;;;;;;;;;5065868;28;20033;-58
2022/11/21 05:25:34;;;;;;;9.25;6.45;;;;;;;;;;5064615;28;20047;-57
2022/11/21 05:28:00;;;;;;;10.00;6.65;;;;;;;;;;5065509;28;20048;-57
2022/11/21 05:30:26;;;;;;;8.95;6.45;;;;;;;;;;5065351;28;20183;-57
2022/11/21 05:32:52;;;;;;;9.38;6.53;;;;;;;;;;5063485;28;20465;-57
2022/11/21 05:35:18;;;;;;;7.25;5.65;;;;;;;;;;5064581;28;20050;-57
2022/11/21 05:37:44;;;;;;;9.05;6.57;;;;;;;;;;5063396;28;20041;-57
2022/11/21 05:40:10;;;;;;;9.93;6.65;;;;;;;;;;5064275;28;20033;-58
2022/11/21 05:45:24;;;;;;;9.77;6.40;;;;;;;;;;5065039;28;20048;-57
2022/11/21 05:47:50;;;;;;;9.57;6.38;;;;;;;;;;5063902;28;21351;-58
2022/11/21 05:50:16;;;;;;;8.88;6.22;;;;;;;;;;5065199;28;20498;-58
2022/11/21 05:52:42;;;;;;;7.60;5.45;;;;;;;;;;5063899;28;20048;-58
2022/11/21 05:55:08;;;;;;;11.20;6.90;;;;;;;;;;5063784;28;20491;-58
2022/11/21 05:57:34;;;;;;;11.52;7.53;;;;;;;;;;5064185;28;20049;-58
2022/11/21 06:00:00;;;;;;;11.32;7.55;;;;;;;;;;5066698;28;20102;-57
2022/11/21 06:05:11;;;;;;;13.43;8.50;;;;;;;;;;5080135;28;20543;-57
2022/11/21 06:07:37;;;;;;;10.35;7.20;;;;;;;;;;5063868;28;20410;-57
2022/11/21 06:10:03;;;;;;;10.00;7.18;;;;;;;;;;5063342;28;20052;-58
2022/11/21 06:12:29;;;;;;;11.35;7.32;;;;;;;;;;5064877;28;20538;-58
2022/11/21 06:14:55;;;;;;;10.75;7.20;;;;;;;;;;5063179;28;20134;-58
2022/11/21 06:17:21;;;;;;;11.75;7.20;;;;;;;;;;5064729;28;20399;-58
2022/11/21 06:19:47;;;;;;;9.98;7.00;;;;;;;;;;5064115;28;20044;-57
2022/11/21 06:22:13;;;;;;;10.77;7.20;;;;;;;;;;5063501;28;20040;-58
2022/11/21 06:24:39;;;;;;;9.50;6.20;;;;;;;;;;5063806;28;20123;-57
2022/11/21 06:27:05;;;;;;;9.75;6.43;;;;;;;;;;5064296;28;20048;-57
2022/11/21 06:29:31;;;;;;;10.05;6.75;;;;;;;;;;5063093;28;20056;-58
2022/11/21 06:31:57;;;;;;;10.57;6.75;;;;;;;;;;5063598;28;20120;-58
2022/11/21 06:34:25;;;;;;;10.55;7.03;;;;;;;;;;5065529;28;20074;-57
2022/11/21 06:36:51;;;;;;;10.35;7.07;;;;;;;;;;5062023;28;20048;-58
2022/11/21 06:39:17;;;;;;;10.48;7.60;;;;;;;;;;5063707;28;20044;-57
2022/11/21 06:41:49;;;;;;;12.90;7.85;;;;;;;;;;5065677;28;20143;-57
2022/11/21 06:44:15;;;;;;;11.68;8.02;;;;;;;;;;5063100;28;20384;-57
2022/11/21 06:46:41;;;;;;;11.70;8.23;;;;;;;;;;5063782;28;20100;-57
2022/11/21 06:49:07;;;;;;;12.15;8.10;;;;;;;;;;5062759;28;20048;-58
2022/11/21 06:51:33;;;;;;;11.40;7.60;;;;;;;;;;5063436;28;20039;-57
2022/11/21 06:53:59;;;;;;;11.55;7.15;;;;;;;;;;5064156;28;20036;-57
2022/11/21 06:56:26;;;;;;;11.60;7.50;;;;;;;;;;5063901;28;20040;-57
2022/11/21 06:58:52;;;;;;;12.85;8.23;;;;;;;;;;5062973;28;20041;-57
2022/11/21 07:01:18;;;;;;;15.43;10.43;;;;;;;;;;5063770;28;20044;-58
2022/11/21 07:03:45;;;;;;;14.93;9.98;;;;;;;;;;5062727;28;20039;-57
2022/11/21 07:06:11;;;;;;;15.52;9.63;;;;;;;;;;5064020;28;20392;-57
2022/11/21 07:08:39;;;;;;;16.95;10.05;;;;;;;;;;5063299;28;20036;-57
2022/11/21 07:11:07;;;;;;;14.73;9.15;;;;;;;;;;5064472;28;20049;-58
2022/11/21 07:13:33;;;;;;;14.25;9.13;;;;;;;;;;5062065;28;20029;-57
2022/11/21 07:16:06;;;;;;;12.70;7.93;;;;;;;;;;5065023;28;20048;-58
2022/11/21 07:18:32;;;;;;;14.60;9.20;;;;;;;;;;5062723;28;20045;-57
2022/11/21 07:20:59;;;;;;;11.35;7.82;;;;;;;;;;5078611;28;20059;-57
2022/11/21 07:23:25;;;;;;;13.27;9.15;;;;;;;;;;5063010;28;20037;-58
2022/11/21 07:25:51;;;;;;;11.20;7.40;;;;;;;;;;5061937;28;20477;-58
2022/11/21 07:28:17;;;;;;;10.93;7.50;;;;;;;;;;5063511;28;20036;-58
2022/11/21 07:30:43;;;;;;;12.02;7.95;;;;;;;;;;5062798;28;20046;-58
2022/11/21 07:33:09;;;;;;;11.77;7.47;;;;;;;;;;5061727;28;20047;-58
2022/11/21 07:35:35;;;;;;;11.32;7.95;;;;;;;;;;5062522;28;20051;-57
2022/11/21 07:38:01;;;;;;;10.80;7.55;;;;;;;;;;5062485;28;20048;-58
2022/11/21 07:40:28;;;;;;;10.13;7.57;;;;;;;;;;5062633;28;20044;-58
2022/11/21 07:42:54;;;;;;;12.18;7.65;;;;;;;;;;5061605;28;20045;-57
2022/11/21 07:45:20;;;;;;;11.80;8.20;;;;;;;;;;5062664;28;20064;-57
2022/11/21 07:47:46;;;;;;;10.80;7.43;;;;;;;;;;5061258;28;20165;-58
2022/11/21 07:50:12;;;;;;;9.55;7.03;;;;;;;;;;5062080;28;20071;-58
2022/11/21 07:52:38;;;;;;;8.82;6.35;;;;;;;;;;5061750;28;20071;-58
2022/11/21 07:55:05;;;;;;;7.80;5.72;;;;;;;;;;5062752;28;20142;-58
2022/11/21 07:57:31;;;;;;;8.77;6.53;;;;;;;;;;5064586;28;20033;-58
2022/11/21 07:59:58;;;;;;;8.55;6.53;;;;;;;;;;5065827;28;20039;-58
2022/11/21 08:02:24;;;;;;;7.43;5.20;;;;;;;;;;5066583;28;20407;-57
2022/11/21 08:04:51;;;;;;;8.25;5.40;;;;;;;;;;5068374;28;21534;-58
2022/11/21 08:07:17;;;;;;;;;;;;;;;;;;5067410;28;20500;-58
2022/11/21 08:09:43;;;;;;;;;;;;;;;;;;5067320;28;19952;-58
2022/11/21 08:12:09;;;;;;;8.52;4.95;;;;;;;;;;5068097;28;19959;-58
2022/11/21 08:14:35;;;;;;;9.43;6.45;;;;;;;;;;5067380;28;20037;-59
2022/11/21 08:17:02;;;;;;;6.90;4.95;;;;;;;;;;5067600;28;20048;-58
2022/11/21 08:19:28;;;;;;;7.32;5.32;;;;;;;;;;5068036;28;20131;-58
2022/11/21 08:21:54;;;;;;;;;;;;;;;;;;5068253;28;20154;-58
2022/11/21 08:24:20;;;;;;;;;;;;;;;;;;5069573;28;19920;-58
2022/11/21 08:26:46;;;;;;;;;;;;;;;;;;5068759;28;19925;-58
2022/11/21 08:29:12;;;;;;;;;;;;;;;;;;5068476;28;20038;-57
2022/11/21 08:31:37;;;;;;;;;;;;;;;;;;5068737;28;19926;-58
2022/11/21 08:34:03;;;;;;;;;;;;;;;;;;5070574;28;20016;-58
2022/11/21 08:36:29;;;;;;;;;;;;;;;;;;5067967;28;20172;-57
2022/11/21 08:38:55;;;;;;;;;;;;;;;;;;5069840;28;19931;-58
2022/11/21 08:44:07;;;;;;;18.02;10.70;;;;;;;;;;5069538;28;20121;-57
2022/11/21 08:46:36;;;;;;;17.02;10.27;;;;;;;;;;5069412;28;20051;-54
2022/11/21 08:49:02;;;;;;;13.98;9.25;;;;;;;;;;5069083;28;20044;-55
2022/11/21 08:51:28;;;;;;;11.73;8.13;;;;;;;;;;5067739;28;20091;-59
2022/11/21 08:53:54;;;;;;;12.30;8.55;;;;;;;;;;5066898;28;20044;-58
2022/11/21 08:56:20;;;;;;;10.80;8.18;;;;;;;;;;5065463;28;20070;-58
2022/11/21 08:58:46;;;;;;;10.55;8.55;;;;;;;;;;5072136;28;20087;-58
2022/11/21 09:01:12;;;;;;;12.05;8.35;;;;;;;;;;5077246;28;20114;-58
2022/11/21 09:03:38;;;;;;;10.27;7.18;;;;;;;;;;5065140;28;20422;-58
2022/11/21 09:06:04;;;;;;;12.55;9.18;;;;;;;;;;5067859;28;20044;-58
2022/11/21 09:08:30;;;;;;;14.48;10.13;;;;;;;;;;5067713;28;20174;-58
2022/11/21 09:10:56;;;;;;;11.05;8.45;;;;;;;;;;5066744;28;20102;-58
2022/11/21 09:13:22;;;;;;;12.50;8.98;;;;;;;;;;5067528;28;20689;-57
2022/11/21 09:18:41;;;;;;;14.65;10.07;;;;;;;;;;5044235;28;20495;-58
2022/11/21 09:21:07;;;;;;;16.90;11.00;;;;;;;;;;5067667;28;20071;-59
2022/11/21 09:23:33;;;;;;;14.25;9.88;;;;;;;;;;5066221;28;20040;-56
2022/11/21 09:25:59;;;;;;;14.88;10.60;;;;;;;;;;5067946;28;20059;-56
2022/11/21 09:28:25;;;;;;;13.90;10.20;;;;;;;;;;5066107;28;20043;-57
2022/11/21 09:30:51;;;;;;;;;;;;;;;;;;5066880;28;20011;-58
2022/11/21 09:33:17;;;;;;;15.95;10.57;;;;;;;;;;5067476;28;20377;-58
2022/11/21 09:35:43;;;;;;;17.17;10.80;;;;;;;;;;5071519;28;20121;-59
2022/11/21 09:38:10;;;;;;;15.25;10.77;;;;;;;;;;5066114;28;20037;-58
2022/11/21 09:40:36;;;;;;;15.38;9.98;;;;;;;;;;5066414;28;20040;-58
2022/11/21 09:43:08;;;;;;;14.80;10.43;;;;;;;;;;5065337;28;20384;-58
2022/11/21 09:45:36;;;;;;;17.60;11.90;;;;;;;;;;5066505;28;20079;-58
2022/11/21 09:48:07;;;;;;;18.63;11.55;;;;;;;;;;5065630;28;20075;-57
2022/11/21 09:50:47;;;;;;;16.40;11.48;;;;;;;;;;5067085;28;20094;-58
2022/11/21 09:53:16;;;;;;;17.77;12.05;;;;;;;;;;5073676;28;20483;-58
2022/11/21 09:55:59;;;;;;;17.88;11.88;;;;;;;;;;5066216;28;20449;-58
2022/11/21 09:58:45;;;;;;;15.60;10.95;;;;;;;;;;5061760;28;20042;-58
2022/11/21 10:01:14;;;;;;;13.80;10.20;;;;;;;;;;5063753;28;20044;-58
2022/11/21 10:03:48;;;;;;;20.73;11.40;;;;;;;;;;5066377;28;20055;-59
2022/11/21 10:06:19;;;;;;;21.20;12.25;;;;;;;;;;5063226;28;20051;-59
2022/11/21 10:08:45;;;;;;;;;;;;;;;;;;5054375;28;20063;-59
2022/11/21 10:11:11;;;;;;;;;;;;;;;;;;5065762;28;20387;-55
2022/11/21 10:13:37;;;;;;;;;;;;;;;;;;5067477;28;19920;-58
2022/11/21 10:16:03;;;;;;;;;;;;;;;;;;5066050;28;20302;-59
2022/11/21 10:18:29;;;;;;;;;;;;;;;;;;5063266;28;19935;-58
2022/11/21 10:20:55;;;;;;;14.45;10.85;;;;;;;;;;5053432;28;20307;-59
2022/11/21 10:23:40;;;;;;;15.65;10.48;;;;;;;;;;5046242;28;20052;-59
2022/11/21 10:26:17;;;;;;;15.35;10.75;;;;;;;;;;5046365;28;20040;-58
2022/11/21 10:28:56;;;;;;;16.77;11.02;;;;;;;;;;5047936;28;20048;-58
2022/11/21 10:31:22;;;;;;;15.10;11.32;;;;;;;;;;5064434;28;20642;-58
2022/11/21 10:33:50;;;;;;;15.80;11.70;;;;;;;;;;5070071;28;20132;-58
2022/11/21 10:36:16;;;;;;;;;;;;;;;;;;5063921;28;20105;-58
2022/11/21 10:38:41;;;;;;;;;;;;;;;;;;5071789;28;20357;-58
2022/11/21 10:41:07;;;;;;;;;;;;;;;;;;5075774;28;19927;-59
2022/11/21 10:46:18;;;;;;;;;;;;;;;;;;5050352;28;20315;-58
2022/11/21 10:48:44;;;;;;;;;;;;;;;;;;5056623;28;19985;-56
2022/11/21 10:51:10;;;;;;;;;;;;;;;;;;5055402;28;19921;-57
2022/11/21 10:56:20;;;;;;;;;;;;;;;;;;5052953;28;19925;-53
2022/11/21 10:58:46;;;;;;;;;;;;;;;;;;5066103;28;19924;-57
2022/11/21 11:01:12;;;;;;;;;;;;;;;;;;5068129;28;19928;-58
2022/11/21 11:03:38;;;;;;;;;;;;;;;;;;5062772;28;20015;-57
2022/11/21 11:06:04;;;;;;;15.75;11.52;;;;;;;;;;5076070;28;20302;-57
2022/11/21 11:08:30;;;;;;;;;;;;;;;;;;5064400;28;20111;-57
2022/11/21 11:10:56;;;;;;;;;;;;;;;;;;5065208;28;19964;-58
2022/11/21 11:16:03;;;;;;;16.60;12.13;;;;;;;;;;5064988;28;20329;-57
2022/11/21 11:18:30;;;;;;;17.27;12.68;;;;;;;;;;5084911;28;20161;-58
2022/11/21 11:21:10;;;;;;;17.23;12.77;;;;;;;;;;5066183;28;20131;-57
2022/11/21 11:23:36;;;;;;;18.20;12.70;;;;;;;;;;5065237;28;20040;-57
2022/11/21 11:26:02;;;;;;;15.85;12.27;;;;;;;;;;5065939;28;20052;-57
2022/11/21 11:28:35;;;;;;;21.02;12.95;;;;;;;;;;5065999;28;20083;-57
2022/11/21 11:31:01;;;;;;;16.50;12.27;;;;;;;;;;5064880;28;20052;-57
2022/11/21 11:33:27;;;;;;;16.98;12.90;;;;;;;;;;5065010;28;20040;-57
2022/11/21 11:35:54;;;;;;;15.65;12.38;;;;;;;;;;5072933;28;20584;-58
2022/11/21 11:38:21;;;;;;;17.08;12.73;;;;;;;;;;5078050;28;20109;-57
2022/11/21 11:40:47;;;;;;;15.93;12.07;;;;;;;;;;5066239;28;20044;-57
2022/11/21 11:49:15;;;;;;;14.73;11.45;;;;;;;;;;5061546;28;20127;-57
2022/11/21 11:51:43;;;;;;;14.63;11.57;;;;;;;;;;5079470;28;20062;-57
2022/11/21 11:54:20;;;;;;;15.38;11.55;;;;;;;;;;5078566;28;20040;-58
2022/11/21 11:56:46;;;;;;;12.23;9.80;;;;;;;;;;5078461;28;20153;-57
2022/11/21 11:59:16;;;;;;;15.35;11.75;;;;;;;;;;5072554;28;20040;-58
2022/11/21 12:02:01;;;;;;;14.77;10.77;;;;;;;;;;5065619;28;20235;-57
2022/11/21 12:04:29;;;;;;;15.23;11.20;;;;;;;;;;5064552;28;20040;-58
2022/11/21 12:07:14;;;;;;;16.40;11.95;;;;;;;;;;5077068;28;20036;-58
2022/11/21 12:09:43;;;;;;;14.50;10.75;;;;;;;;;;5076898;28;20051;-58
2022/11/21 12:12:10;;;;;;;14.25;10.68;;;;;;;;;;5065963;28;20499;-59
2022/11/21 12:17:26;;;;;;;12.10;9.60;;;;;;;;;;5063060;28;20045;-57
2022/11/21 12:19:53;;;;;;;10.60;8.45;;;;;;;;;;5061743;28;20512;-58
2022/11/21 12:22:19;;;;;;;11.48;9.05;;;;;;;;;;5063083;28;20403;-58
2022/11/21 12:24:45;;;;;;;11.65;8.48;;;;;;;;;;5062706;28;20052;-59
2022/11/21 12:27:21;;;;;;;11.75;8.80;;;;;;;;;;5060857;28;20606;-58
2022/11/21 12:29:47;;;;;;;11.23;8.75;;;;;;;;;;5062894;28;20036;-59
2022/11/21 12:32:13;;;;;;;11.02;8.38;;;;;;;;;;5060589;28;20052;-59
2022/11/21 12:34:58;;;;;;;10.20;7.68;;;;;;;;;;5070544;28;20066;-59
2022/11/21 12:37:26;;;;;;;12.30;9.30;;;;;;;;;;5054386;28;20564;-59
2022/11/21 12:39:59;;;;;;;12.05;8.52;;;;;;;;;;5058759;28;20510;-59
2022/11/21 12:45:10;;;;;;;12.40;8.52;;;;;;;;;;5067211;28;19920;-59
2022/11/21 12:54:29;;;;;;;9.82;8.02;;;;;;;;;;5059335;28;20609;-59
2022/11/21 12:56:17;;;;;;;8.20;6.75;;;;;;;;;;5056023;28;20041;-58
2022/11/21 12:58:46;;;;;;;9.52;7.78;;;;;;;;;;5055981;28;20052;-57
2022/11/21 13:01:18;;;;;;;8.50;6.60;;;;;;;;;;5055449;28;20045;-58
2022/11/21 13:03:44;;;;;;;;;;;;;;;;;;5054852;28;20503;-58
2022/11/21 13:06:16;;;;;;;10.68;8.07;;;;;;;;;;5057355;28;19927;-58
2022/11/21 13:08:44;;;;;;;10.20;8.32;;;;;;;;;;5056974;28;20672;-59
2022/11/21 13:14:04;;;;;;;11.05;8.40;;;;;;;;;;5067492;28;20041;-58
2022/11/21 13:16:36;;;;;;;;;;;;;;;;;;5065423;28;20036;-58
2022/11/21 13:19:14;;;;;;;12.10;9.52;;;;;;;;;;5067172;28;20080;-59
2022/11/21 13:21:42;;;;;;;10.02;7.78;;;;;;;;;;5063478;28;20052;-59
2022/11/21 13:24:08;;;;;;;9.13;7.78;;;;;;;;;;5058537;28;20495;-58
2022/11/21 13:26:37;;;;;;;11.73;8.55;;;;;;;;;;5067147;28;20048;-58
2022/11/21 13:29:07;;;;;;;11.45;8.45;;;;;;;;;;5066803;28;20036;-60
2022/11/21 13:31:34;;;;;;;11.43;8.65;;;;;;;;;;5064616;28;20036;-59
2022/11/21 13:34:01;;;;;;;13.98;9.30;;;;;;;;;;5066909;28;20044;-59
2022/11/21 13:36:33;;;;;;;11.30;8.43;;;;;;;;;;5067847;28;20048;-59
2022/11/21 13:38:59;;;;;;;9.15;7.20;;;;;;;;;;5079535;28;20044;-59
2022/11/21 13:44:31;;;;;;;11.38;8.45;;;;;;;;;;5064623;28;20044;-59
2022/11/21 13:47:09;;;;;;;11.80;8.75;;;;;;;;;;5067556;28;20443;-60
2022/11/21 13:49:53;;;;;;;10.80;8.02;;;;;;;;;;5069757;28;20123;-60
2022/11/21 13:52:19;;;;;;;9.35;8.07;;;;;;;;;;5072668;28;20036;-60
2022/11/21 13:54:49;;;;;;;9.27;7.65;;;;;;;;;;5070211;28;20519;-61
2022/11/21 13:57:14;;;;;;;11.45;9.85;;;;;;;;;;5076046;28;20040;-59
2022/11/21 13:59:59;;;;;;;11.07;9.27;;;;;;;;;;5079473;28;20055;-60
2022/11/21 14:02:33;;;;;;;11.30;8.63;;;;;;;;;;5070887;28;20040;-59
2022/11/21 14:05:02;;;;;;;11.25;8.25;;;;;;;;;;5073423;28;20098;-60
2022/11/21 14:07:28;;;;;;;11.38;8.38;;;;;;;;;;5065505;28;20560;-60
2022/11/21 14:10:05;;;;;;;9.43;7.47;;;;;;;;;;5065860;28;20052;-60
2022/11/21 14:12:32;;;;;;;11.73;7.85;;;;;;;;;;5065295;28;20578;-59
2022/11/21 14:15:01;;;;;;;11.77;8.93;;;;;;;;;;5066545;28;20041;-59
2022/11/21 14:17:33;;;;;;;12.10;9.30;;;;;;;;;;5065387;28;20049;-60
2022/11/21 14:20:01;;;;;;;10.55;8.70;;;;;;;;;;5097395;28;20124;-60
2022/11/21 14:22:40;;;;;;;11.60;8.82;;;;;;;;;;5065594;28;20068;-59
2022/11/21 14:25:13;;;;;;;12.18;9.23;;;;;;;;;;5068545;28;20684;-59
2022/11/21 14:27:40;;;;;;;12.85;9.80;;;;;;;;;;5058547;28;20044;-59
2022/11/21 14:30:24;;;;;;;11.88;9.25;;;;;;;;;;5063623;28;20110;-59
2022/11/21 14:32:50;;;;;;;12.75;9.52;;;;;;;;;;5064938;28;20445;-59
2022/11/21 14:35:20;;;;;;;12.63;9.60;;;;;;;;;;5065157;28;20051;-59
2022/11/21 14:37:46;;;;;;;11.13;8.38;;;;;;;;;;5066007;28;20052;-59
2022/11/21 14:40:22;;;;;;;10.48;8.20;;;;;;;;;;5065625;28;20414;-60
2022/11/21 14:42:48;;;;;;;10.73;8.07;;;;;;;;;;5065962;28;20392;-59
2022/11/21 14:45:19;;;;;;;13.52;10.25;;;;;;;;;;5064810;28;20160;-60
2022/11/21 14:47:46;;;;;;;13.70;9.45;;;;;;;;;;5065387;28;20032;-59
2022/11/21 14:50:21;;;;;;;13.35;8.88;;;;;;;;;;5065147;28;20044;-59
2022/11/21 14:52:55;;;;;;;10.13;7.90;;;;;;;;;;5064964;28;20047;-59
2022/11/21 14:55:23;;;;;;;11.20;8.73;;;;;;;;;;5063851;28;20049;-59
2022/11/21 14:57:50;;;;;;;10.40;8.45;;;;;;;;;;5097656;28;20123;-58
2022/11/21 15:00:18;;;;;;;12.73;9.15;;;;;;;;;;5065037;28;20052;-59
2022/11/21 15:02:44;;;;;;;14.77;10.75;;;;;;;;;;5063557;28;20044;-60
2022/11/21 15:05:14;;;;;;;15.82;9.63;;;;;;;;;;5065898;28;20048;-60
2022/11/21 15:07:41;;;;;;;12.77;9.27;;;;;;;;;;5059736;28;20044;-59
2022/11/21 15:10:14;;;;;;;13.07;9.73;;;;;;;;;;5050992;28;20161;-60
2022/11/21 15:12:40;;;;;;;14.75;10.55;;;;;;;;;;5053776;28;20085;-59
2022/11/21 15:15:18;;;;;;;15.88;11.65;;;;;;;;;;5050411;28;20210;-59
2022/11/21 15:17:44;;;;;;;16.95;11.73;;;;;;;;;;5054935;28;20055;-60
2022/11/21 15:20:13;;;;;;;13.63;9.68;;;;;;;;;;5081251;28;20040;-59
2022/11/21 15:22:41;;;;;;;13.27;9.50;;;;;;;;;;5085082;28;20052;-59
2022/11/21 15:25:18;;;;;;;15.18;10.30;;;;;;;;;;5067107;28;20076;-59
2022/11/21 15:27:44;;;;;;;13.75;9.50;;;;;;;;;;5049876;28;20518;-59
2022/11/21 15:30:11;;;;;;;16.20;11.20;;;;;;;;;;5045180;28;20051;-59
2022/11/21 15:32:57;;;;;;;17.65;12.50;;;;;;;;;;5045893;28;20051;-59